sensor_id;sensor_type;location;lat;lon;timestamp;temperature;humidity
66140;DHT22;52945;51.908;8.364;2023-07-16T00:02:30;24.20;55.10
66140;DHT22;52945;51.908;8.364;2023-07-16T00:05:30;24.20;55.20
66140;DHT22;52945;51.908;8.364;2023-07-16T00:08:31;24.20;55.40
66140;DHT22;52945;51.908;8.364;2023-07-16T00:11:31;24.20;55.50
66140;DHT22;52945;51.908;8.364;2023-07-16T00:14:32;24.20;55.60
66140;DHT22;52945;51.908;8.364;2023-07-16T00:17:34;24.20;55.50
66140;DHT22;52945;51.908;8.364;2023-07-16T00:20:34;24.20;55.50
66140;DHT22;52945;51.908;8.364;2023-07-16T00:23:36;24.20;55.40
66140;DHT22;52945;51.908;8.364;2023-07-16T00:26:37;24.00;55.50
66140;DHT22;52945;51.908;8.364;2023-07-16T00:29:37;24.00;55.80
66140;DHT22;52945;51.908;8.364;2023-07-16T00:32:38;23.90;56.00
66140;DHT22;52945;51.908;8.364;2023-07-16T00:35:39;23.90;56.00
66140;DHT22;52945;51.908;8.364;2023-07-16T00:38:46;23.90;55.90
66140;DHT22;52945;51.908;8.364;2023-07-16T00:41:46;23.90;56.00
66140;DHT22;52945;51.908;8.364;2023-07-16T00:44:47;23.90;55.90
66140;DHT22;52945;51.908;8.364;2023-07-16T00:47:48;23.80;56.00
66140;DHT22;52945;51.908;8.364;2023-07-16T00:50:51;23.80;56.00
66140;DHT22;52945;51.908;8.364;2023-07-16T00:53:53;23.70;56.20
66140;DHT22;52945;51.908;8.364;2023-07-16T00:56:53;23.60;56.40
66140;DHT22;52945;51.908;8.364;2023-07-16T00:59:54;23.70;56.50
66140;DHT22;52945;51.908;8.364;2023-07-16T01:02:54;23.70;56.50
66140;DHT22;52945;51.908;8.364;2023-07-16T01:12:12;23.60;56.80
66140;DHT22;52945;51.908;8.364;2023-07-16T01:15:13;23.50;56.80
66140;DHT22;52945;51.908;8.364;2023-07-16T01:18:14;23.60;56.80
66140;DHT22;52945;51.908;8.364;2023-07-16T01:21:19;23.50;56.90
66140;DHT22;52945;51.908;8.364;2023-07-16T01:28:24;23.50;57.10
66140;DHT22;52945;51.908;8.364;2023-07-16T01:31:28;23.50;57.00
66140;DHT22;52945;51.908;8.364;2023-07-16T01:34:31;23.40;57.20
66140;DHT22;52945;51.908;8.364;2023-07-16T01:37:33;23.40;57.50
66140;DHT22;52945;51.908;8.364;2023-07-16T01:40:34;23.30;57.90
66140;DHT22;52945;51.908;8.364;2023-07-16T01:43:35;23.20;58.10
66140;DHT22;52945;51.908;8.364;2023-07-16T01:46:35;23.20;58.20
66140;DHT22;52945;51.908;8.364;2023-07-16T01:49:36;23.20;58.50
66140;DHT22;52945;51.908;8.364;2023-07-16T01:52:37;23.20;58.80
66140;DHT22;52945;51.908;8.364;2023-07-16T01:55:37;23.20;58.80
66140;DHT22;52945;51.908;8.364;2023-07-16T01:58:38;23.10;59.10
66140;DHT22;52945;51.908;8.364;2023-07-16T02:01:38;23.10;59.10
66140;DHT22;52945;51.908;8.364;2023-07-16T02:04:39;23.10;59.00
66140;DHT22;52945;51.908;8.364;2023-07-16T02:07:39;23.10;59.20
66140;DHT22;52945;51.908;8.364;2023-07-16T02:10:40;23.10;59.20
66140;DHT22;52945;51.908;8.364;2023-07-16T02:13:41;23.10;59.20
66140;DHT22;52945;51.908;8.364;2023-07-16T02:16:41;23.10;59.50
66140;DHT22;52945;51.908;8.364;2023-07-16T02:19:42;23.10;59.60
66140;DHT22;52945;51.908;8.364;2023-07-16T02:22:42;23.00;59.80
66140;DHT22;52945;51.908;8.364;2023-07-16T02:25:43;23.00;60.00
66140;DHT22;52945;51.908;8.364;2023-07-16T02:28:44;23.00;60.00
66140;DHT22;52945;51.908;8.364;2023-07-16T02:31:44;22.90;60.10
66140;DHT22;52945;51.908;8.364;2023-07-16T02:34:46;22.80;60.30
66140;DHT22;52945;51.908;8.364;2023-07-16T02:37:47;22.80;60.60
66140;DHT22;52945;51.908;8.364;2023-07-16T02:40:48;22.70;60.90
66140;DHT22;52945;51.908;8.364;2023-07-16T02:44:00;22.70;61.10
66140;DHT22;52945;51.908;8.364;2023-07-16T02:47:01;22.70;61.20
66140;DHT22;52945;51.908;8.364;2023-07-16T02:50:01;22.70;61.20
66140;DHT22;52945;51.908;8.364;2023-07-16T02:53:06;22.70;61.40
66140;DHT22;52945;51.908;8.364;2023-07-16T02:56:07;22.70;61.40
66140;DHT22;52945;51.908;8.364;2023-07-16T02:59:07;22.70;61.40
66140;DHT22;52945;51.908;8.364;2023-07-16T03:02:08;22.60;61.60
66140;DHT22;52945;51.908;8.364;2023-07-16T03:05:09;22.60;61.70
66140;DHT22;52945;51.908;8.364;2023-07-16T03:08:09;22.60;61.70
66140;DHT22;52945;51.908;8.364;2023-07-16T03:11:10;22.60;61.80
66140;DHT22;52945;51.908;8.364;2023-07-16T03:14:10;22.60;61.90
66140;DHT22;52945;51.908;8.364;2023-07-16T03:17:11;22.50;62.10
66140;DHT22;52945;51.908;8.364;2023-07-16T03:20:11;22.40;62.20
66140;DHT22;52945;51.908;8.364;2023-07-16T03:23:13;22.40;62.30
66140;DHT22;52945;51.908;8.364;2023-07-16T03:26:14;22.30;62.50
66140;DHT22;52945;51.908;8.364;2023-07-16T03:29:14;22.30;62.60
66140;DHT22;52945;51.908;8.364;2023-07-16T03:32:15;22.30;62.50
66140;DHT22;52945;51.908;8.364;2023-07-16T03:35:16;22.30;62.70
66140;DHT22;52945;51.908;8.364;2023-07-16T03:38:16;22.20;62.70
66140;DHT22;52945;51.908;8.364;2023-07-16T03:41:17;22.20;62.80
66140;DHT22;52945;51.908;8.364;2023-07-16T03:44:17;22.10;62.90
66140;DHT22;52945;51.908;8.364;2023-07-16T03:47:18;22.10;62.90
66140;DHT22;52945;51.908;8.364;2023-07-16T03:50:19;22.00;62.90
66140;DHT22;52945;51.908;8.364;2023-07-16T03:53:19;22.00;62.50
66140;DHT22;52945;51.908;8.364;2023-07-16T03:56:20;22.00;62.50
66140;DHT22;52945;51.908;8.364;2023-07-16T03:59:20;22.00;62.40
66140;DHT22;52945;51.908;8.364;2023-07-16T04:02:21;22.00;62.70
66140;DHT22;52945;51.908;8.364;2023-07-16T04:05:22;22.00;62.50
66140;DHT22;52945;51.908;8.364;2023-07-16T04:08:22;22.00;62.50
66140;DHT22;52945;51.908;8.364;2023-07-16T04:11:23;21.90;62.30
66140;DHT22;52945;51.908;8.364;2023-07-16T04:14:23;21.90;62.40
66140;DHT22;52945;51.908;8.364;2023-07-16T04:17:25;21.90;62.40
66140;DHT22;52945;51.908;8.364;2023-07-16T04:20:25;21.90;62.40
66140;DHT22;52945;51.908;8.364;2023-07-16T04:23:26;21.90;62.40
66140;DHT22;52945;51.908;8.364;2023-07-16T04:26:26;21.90;62.60
66140;DHT22;52945;51.908;8.364;2023-07-16T04:29:27;21.90;62.60
66140;DHT22;52945;51.908;8.364;2023-07-16T04:32:27;22.00;62.60
66140;DHT22;52945;51.908;8.364;2023-07-16T04:35:28;21.90;62.70
66140;DHT22;52945;51.908;8.364;2023-07-16T04:38:28;21.90;62.90
66140;DHT22;52945;51.908;8.364;2023-07-16T04:41:29;21.90;62.70
66140;DHT22;52945;51.908;8.364;2023-07-16T04:44:30;21.90;62.80
66140;DHT22;52945;51.908;8.364;2023-07-16T04:47:30;21.90;62.70
66140;DHT22;52945;51.908;8.364;2023-07-16T04:50:31;21.90;62.90
66140;DHT22;52945;51.908;8.364;2023-07-16T04:53:31;21.90;62.60
66140;DHT22;52945;51.908;8.364;2023-07-16T04:56:32;21.90;62.70
66140;DHT22;52945;51.908;8.364;2023-07-16T04:59:32;21.90;62.80
66140;DHT22;52945;51.908;8.364;2023-07-16T05:02:33;21.80;62.80
66140;DHT22;52945;51.908;8.364;2023-07-16T05:05:34;21.90;62.70
66140;DHT22;52945;51.908;8.364;2023-07-16T05:08:35;21.90;62.80
66140;DHT22;52945;51.908;8.364;2023-07-16T05:11:35;21.90;62.30
66140;DHT22;52945;51.908;8.364;2023-07-16T05:14:48;21.80;62.00
66140;DHT22;52945;51.908;8.364;2023-07-16T05:17:48;21.80;61.70
66140;DHT22;52945;51.908;8.364;2023-07-16T05:20:49;21.80;61.10
66140;DHT22;52945;51.908;8.364;2023-07-16T05:23:50;21.90;60.90
66140;DHT22;52945;51.908;8.364;2023-07-16T05:26:50;21.80;60.00
66140;DHT22;52945;51.908;8.364;2023-07-16T05:29:51;21.80;59.90
66140;DHT22;52945;51.908;8.364;2023-07-16T05:32:52;21.80;58.70
66140;DHT22;52945;51.908;8.364;2023-07-16T05:35:52;21.90;58.90
66140;DHT22;52945;51.908;8.364;2023-07-16T05:38:53;21.90;57.30
66140;DHT22;52945;51.908;8.364;2023-07-16T05:41:53;21.90;55.80
66140;DHT22;52945;51.908;8.364;2023-07-16T05:44:54;22.00;55.10
66140;DHT22;52945;51.908;8.364;2023-07-16T05:47:54;21.90;54.80
66140;DHT22;52945;51.908;8.364;2023-07-16T05:50:55;21.90;54.50
66140;DHT22;52945;51.908;8.364;2023-07-16T05:53:55;22.00;54.00
66140;DHT22;52945;51.908;8.364;2023-07-16T05:56:56;21.90;52.30
66140;DHT22;52945;51.908;8.364;2023-07-16T05:59:57;22.00;52.00
66140;DHT22;52945;51.908;8.364;2023-07-16T06:02:57;22.00;51.90
66140;DHT22;52945;51.908;8.364;2023-07-16T06:05:58;22.00;52.10
66140;DHT22;52945;51.908;8.364;2023-07-16T06:08:58;22.00;51.50
66140;DHT22;52945;51.908;8.364;2023-07-16T06:11:59;22.10;51.40
66140;DHT22;52945;51.908;8.364;2023-07-16T06:15:00;22.10;50.80
66140;DHT22;52945;51.908;8.364;2023-07-16T06:18:01;22.00;50.60
66140;DHT22;52945;51.908;8.364;2023-07-16T06:21:01;22.00;50.40
66140;DHT22;52945;51.908;8.364;2023-07-16T06:24:02;22.10;50.50
66140;DHT22;52945;51.908;8.364;2023-07-16T06:27:03;22.10;50.40
66140;DHT22;52945;51.908;8.364;2023-07-16T06:30:04;22.20;50.60
66140;DHT22;52945;51.908;8.364;2023-07-16T06:33:06;22.20;50.40
66140;DHT22;52945;51.908;8.364;2023-07-16T06:36:07;22.20;49.50
66140;DHT22;52945;51.908;8.364;2023-07-16T06:39:07;22.20;49.20
66140;DHT22;52945;51.908;8.364;2023-07-16T06:42:08;22.20;49.20
66140;DHT22;52945;51.908;8.364;2023-07-16T06:45:08;22.20;49.10
66140;DHT22;52945;51.908;8.364;2023-07-16T06:48:09;22.20;49.00
66140;DHT22;52945;51.908;8.364;2023-07-16T06:51:10;22.20;48.30
66140;DHT22;52945;51.908;8.364;2023-07-16T06:54:10;22.20;48.40
66140;DHT22;52945;51.908;8.364;2023-07-16T06:57:11;22.30;49.10
66140;DHT22;52945;51.908;8.364;2023-07-16T07:00:12;22.40;48.80
66140;DHT22;52945;51.908;8.364;2023-07-16T07:03:12;22.40;48.50
66140;DHT22;52945;51.908;8.364;2023-07-16T07:06:13;22.50;47.90
66140;DHT22;52945;51.908;8.364;2023-07-16T07:09:13;22.50;47.70
66140;DHT22;52945;51.908;8.364;2023-07-16T07:12:14;22.60;47.90
66140;DHT22;52945;51.908;8.364;2023-07-16T07:15:15;22.60;47.70
66140;DHT22;52945;51.908;8.364;2023-07-16T07:18:16;22.60;48.10
66140;DHT22;52945;51.908;8.364;2023-07-16T07:21:17;22.60;48.10
66140;DHT22;52945;51.908;8.364;2023-07-16T07:24:17;22.70;48.20
66140;DHT22;52945;51.908;8.364;2023-07-16T07:27:18;22.70;48.10
66140;DHT22;52945;51.908;8.364;2023-07-16T07:30:18;22.70;48.00
66140;DHT22;52945;51.908;8.364;2023-07-16T07:33:19;22.80;47.70
66140;DHT22;52945;51.908;8.364;2023-07-16T07:36:19;22.80;46.90
66140;DHT22;52945;51.908;8.364;2023-07-16T07:39:20;22.90;47.70
66140;DHT22;52945;51.908;8.364;2023-07-16T07:42:20;22.90;46.10
66140;DHT22;52945;51.908;8.364;2023-07-16T07:45:21;23.00;46.30
66140;DHT22;52945;51.908;8.364;2023-07-16T07:48:22;23.20;45.30
66140;DHT22;52945;51.908;8.364;2023-07-16T07:51:22;23.20;44.40
66140;DHT22;52945;51.908;8.364;2023-07-16T07:54:23;23.20;44.30
66140;DHT22;52945;51.908;8.364;2023-07-16T07:57:23;23.30;44.10
66140;DHT22;52945;51.908;8.364;2023-07-16T08:00:24;23.40;44.20
66140;DHT22;52945;51.908;8.364;2023-07-16T08:03:25;23.50;44.90
66140;DHT22;52945;51.908;8.364;2023-07-16T08:06:26;23.50;44.00
66140;DHT22;52945;51.908;8.364;2023-07-16T08:09:26;23.60;43.50
66140;DHT22;52945;51.908;8.364;2023-07-16T08:12:27;23.70;44.10
66140;DHT22;52945;51.908;8.364;2023-07-16T08:15:28;23.70;44.20
66140;DHT22;52945;51.908;8.364;2023-07-16T08:18:29;23.70;44.50
66140;DHT22;52945;51.908;8.364;2023-07-16T08:21:29;23.70;44.40
66140;DHT22;52945;51.908;8.364;2023-07-16T08:24:30;23.70;44.20
66140;DHT22;52945;51.908;8.364;2023-07-16T08:27:31;23.70;44.40
66140;DHT22;52945;51.908;8.364;2023-07-16T08:30:32;23.70;44.40
66140;DHT22;52945;51.908;8.364;2023-07-16T08:33:33;23.70;44.30
66140;DHT22;52945;51.908;8.364;2023-07-16T08:36:34;23.60;44.00
66140;DHT22;52945;51.908;8.364;2023-07-16T08:39:34;23.60;43.70
66140;DHT22;52945;51.908;8.364;2023-07-16T08:42:39;23.60;43.30
66140;DHT22;52945;51.908;8.364;2023-07-16T08:45:40;23.70;43.70
66140;DHT22;52945;51.908;8.364;2023-07-16T08:48:43;23.50;43.50
66140;DHT22;52945;51.908;8.364;2023-07-16T08:51:48;23.50;43.90
66140;DHT22;52945;51.908;8.364;2023-07-16T08:54:49;23.50;42.80
66140;DHT22;52945;51.908;8.364;2023-07-16T08:57:50;23.50;42.70
66140;DHT22;52945;51.908;8.364;2023-07-16T09:00:51;23.50;43.20
66140;DHT22;52945;51.908;8.364;2023-07-16T09:03:52;23.70;43.70
66140;DHT22;52945;51.908;8.364;2023-07-16T09:06:53;23.70;42.90
66140;DHT22;52945;51.908;8.364;2023-07-16T09:09:58;23.70;43.10
66140;DHT22;52945;51.908;8.364;2023-07-16T09:12:59;23.90;43.00
66140;DHT22;52945;51.908;8.364;2023-07-16T09:16:00;24.00;42.90
66140;DHT22;52945;51.908;8.364;2023-07-16T09:19:11;24.10;42.20
66140;DHT22;52945;51.908;8.364;2023-07-16T09:22:16;24.20;42.10
66140;DHT22;52945;51.908;8.364;2023-07-16T09:25:16;24.20;42.90
66140;DHT22;52945;51.908;8.364;2023-07-16T09:28:18;24.20;42.00
66140;DHT22;52945;51.908;8.364;2023-07-16T09:31:20;24.20;41.70
66140;DHT22;52945;51.908;8.364;2023-07-16T09:34:20;24.20;41.50
66140;DHT22;52945;51.908;8.364;2023-07-16T09:37:21;24.20;41.00
66140;DHT22;52945;51.908;8.364;2023-07-16T09:40:21;24.30;40.80
66140;DHT22;52945;51.908;8.364;2023-07-16T09:43:22;24.50;40.50
66140;DHT22;52945;51.908;8.364;2023-07-16T09:46:23;24.60;40.00
66140;DHT22;52945;51.908;8.364;2023-07-16T09:49:25;24.80;39.90
66140;DHT22;52945;51.908;8.364;2023-07-16T09:52:28;24.90;39.40
66140;DHT22;52945;51.908;8.364;2023-07-16T09:55:31;25.20;39.40
66140;DHT22;52945;51.908;8.364;2023-07-16T09:58:32;25.50;38.30
66140;DHT22;52945;51.908;8.364;2023-07-16T10:01:33;25.80;38.40
66140;DHT22;52945;51.908;8.364;2023-07-16T10:04:40;26.00;37.80
66140;DHT22;52945;51.908;8.364;2023-07-16T10:07:41;26.20;36.80
66140;DHT22;52945;51.908;8.364;2023-07-16T10:11:17;26.30;35.40
66140;DHT22;52945;51.908;8.364;2023-07-16T10:14:10;26.50;35.60
66140;DHT22;52945;51.908;8.364;2023-07-16T10:17:16;26.70;36.10
66140;DHT22;52945;51.908;8.364;2023-07-16T10:20:31;26.70;36.00
66140;DHT22;52945;51.908;8.364;2023-07-16T10:23:42;26.70;35.20
66140;DHT22;52945;51.908;8.364;2023-07-16T10:26:43;26.70;35.20
66140;DHT22;52945;51.908;8.364;2023-07-16T10:29:44;26.80;35.70
66140;DHT22;52945;51.908;8.364;2023-07-16T10:32:44;26.90;35.50
66140;DHT22;52945;51.908;8.364;2023-07-16T10:35:46;26.80;35.00
66140;DHT22;52945;51.908;8.364;2023-07-16T10:38:46;26.90;35.60
66140;DHT22;52945;51.908;8.364;2023-07-16T10:41:47;26.90;35.90
66140;DHT22;52945;51.908;8.364;2023-07-16T10:44:51;26.90;35.60
66140;DHT22;52945;51.908;8.364;2023-07-16T10:47:54;27.00;35.40
66140;DHT22;52945;51.908;8.364;2023-07-16T10:50:55;27.00;35.00
66140;DHT22;52945;51.908;8.364;2023-07-16T10:53:56;27.00;35.80
66140;DHT22;52945;51.908;8.364;2023-07-16T10:56:57;27.00;35.70
66140;DHT22;52945;51.908;8.364;2023-07-16T10:59:58;27.00;35.30
66140;DHT22;52945;51.908;8.364;2023-07-16T11:02:59;27.00;35.30
66140;DHT22;52945;51.908;8.364;2023-07-16T11:06:06;27.10;35.10
66140;DHT22;52945;51.908;8.364;2023-07-16T11:09:09;27.10;34.90
66140;DHT22;52945;51.908;8.364;2023-07-16T11:12:12;27.10;35.10
66140;DHT22;52945;51.908;8.364;2023-07-16T11:15:13;27.00;34.60
66140;DHT22;52945;51.908;8.364;2023-07-16T11:18:15;27.10;35.00
66140;DHT22;52945;51.908;8.364;2023-07-16T11:21:18;27.10;34.90
66140;DHT22;52945;51.908;8.364;2023-07-16T11:24:20;27.10;35.30
66140;DHT22;52945;51.908;8.364;2023-07-16T11:27:31;27.10;35.20
66140;DHT22;52945;51.908;8.364;2023-07-16T11:30:32;27.10;35.80
66140;DHT22;52945;51.908;8.364;2023-07-16T11:33:36;27.20;35.70
66140;DHT22;52945;51.908;8.364;2023-07-16T11:36:37;27.30;35.50
66140;DHT22;52945;51.908;8.364;2023-07-16T11:39:37;27.40;35.60
66140;DHT22;52945;51.908;8.364;2023-07-16T11:42:39;27.40;35.00
66140;DHT22;52945;51.908;8.364;2023-07-16T11:45:40;27.40;34.60
66140;DHT22;52945;51.908;8.364;2023-07-16T11:48:40;27.40;34.80
66140;DHT22;52945;51.908;8.364;2023-07-16T11:51:41;27.40;35.00
66140;DHT22;52945;51.908;8.364;2023-07-16T11:54:43;27.50;34.70
66140;DHT22;52945;51.908;8.364;2023-07-16T11:57:44;27.50;34.30
66140;DHT22;52945;51.908;8.364;2023-07-16T12:00:44;27.50;34.30
66140;DHT22;52945;51.908;8.364;2023-07-16T12:03:45;27.60;34.30
66140;DHT22;52945;51.908;8.364;2023-07-16T12:06:46;27.60;34.10
66140;DHT22;52945;51.908;8.364;2023-07-16T12:09:46;27.60;33.80
66140;DHT22;52945;51.908;8.364;2023-07-16T12:12:47;27.70;34.20
66140;DHT22;52945;51.908;8.364;2023-07-16T12:15:47;27.60;33.60
66140;DHT22;52945;51.908;8.364;2023-07-16T12:18:48;27.60;34.00
66140;DHT22;52945;51.908;8.364;2023-07-16T12:21:49;27.50;34.20
66140;DHT22;52945;51.908;8.364;2023-07-16T12:24:49;27.30;34.40
66140;DHT22;52945;51.908;8.364;2023-07-16T12:27:50;27.40;34.30
66140;DHT22;52945;51.908;8.364;2023-07-16T12:30:50;27.40;34.30
66140;DHT22;52945;51.908;8.364;2023-07-16T12:33:51;27.30;34.80
66140;DHT22;52945;51.908;8.364;2023-07-16T12:36:51;27.20;34.60
66140;DHT22;52945;51.908;8.364;2023-07-16T12:39:52;27.20;34.40
66140;DHT22;52945;51.908;8.364;2023-07-16T12:42:53;27.00;34.50
66140;DHT22;52945;51.908;8.364;2023-07-16T12:45:53;27.00;35.50
66140;DHT22;52945;51.908;8.364;2023-07-16T12:48:54;26.90;35.00
66140;DHT22;52945;51.908;8.364;2023-07-16T12:51:54;26.90;34.80
66140;DHT22;52945;51.908;8.364;2023-07-16T12:54:55;26.80;35.10
66140;DHT22;52945;51.908;8.364;2023-07-16T12:57:55;26.90;34.60
66140;DHT22;52945;51.908;8.364;2023-07-16T13:00:56;26.90;35.10
66140;DHT22;52945;51.908;8.364;2023-07-16T13:03:56;26.80;35.20
66140;DHT22;52945;51.908;8.364;2023-07-16T13:06:57;26.90;35.10
66140;DHT22;52945;51.908;8.364;2023-07-16T13:09:58;27.00;35.70
66140;DHT22;52945;51.908;8.364;2023-07-16T13:12:58;27.10;34.90
66140;DHT22;52945;51.908;8.364;2023-07-16T13:15:59;27.20;34.20
66140;DHT22;52945;51.908;8.364;2023-07-16T13:19:00;27.30;34.80
66140;DHT22;52945;51.908;8.364;2023-07-16T13:22:00;27.40;34.70
66140;DHT22;52945;51.908;8.364;2023-07-16T13:25:01;27.40;34.50
66140;DHT22;52945;51.908;8.364;2023-07-16T13:28:02;27.40;34.80
66140;DHT22;52945;51.908;8.364;2023-07-16T13:31:03;27.60;35.30
66140;DHT22;52945;51.908;8.364;2023-07-16T13:34:04;27.70;34.20
66140;DHT22;52945;51.908;8.364;2023-07-16T13:37:04;27.80;34.10
66140;DHT22;52945;51.908;8.364;2023-07-16T13:40:06;28.00;34.60
66140;DHT22;52945;51.908;8.364;2023-07-16T13:43:06;28.10;34.50
66140;DHT22;52945;51.908;8.364;2023-07-16T13:46:07;28.10;33.80
66140;DHT22;52945;51.908;8.364;2023-07-16T13:49:07;28.20;33.60
66140;DHT22;52945;51.908;8.364;2023-07-16T13:52:08;28.20;34.30
66140;DHT22;52945;51.908;8.364;2023-07-16T13:55:09;28.30;33.60
66140;DHT22;52945;51.908;8.364;2023-07-16T13:58:09;28.50;33.60
66140;DHT22;52945;51.908;8.364;2023-07-16T14:01:11;28.50;33.50
66140;DHT22;52945;51.908;8.364;2023-07-16T14:04:11;28.70;34.00
66140;DHT22;52945;51.908;8.364;2023-07-16T14:07:12;28.70;33.40
66140;DHT22;52945;51.908;8.364;2023-07-16T14:10:12;28.80;33.50
66140;DHT22;52945;51.908;8.364;2023-07-16T14:13:13;28.80;33.40
66140;DHT22;52945;51.908;8.364;2023-07-16T14:16:16;28.80;33.90
66140;DHT22;52945;51.908;8.364;2023-07-16T14:19:17;28.90;33.80
66140;DHT22;52945;51.908;8.364;2023-07-16T14:22:17;28.80;33.40
66140;DHT22;52945;51.908;8.364;2023-07-16T14:25:18;28.70;33.30
66140;DHT22;52945;51.908;8.364;2023-07-16T14:28:19;28.70;33.90
66140;DHT22;52945;51.908;8.364;2023-07-16T14:31:19;28.60;33.30
66140;DHT22;52945;51.908;8.364;2023-07-16T14:34:20;28.50;33.70
66140;DHT22;52945;51.908;8.364;2023-07-16T14:37:20;28.50;33.70
66140;DHT22;52945;51.908;8.364;2023-07-16T14:40:21;28.50;33.80
66140;DHT22;52945;51.908;8.364;2023-07-16T14:43:22;28.30;33.80
66140;DHT22;52945;51.908;8.364;2023-07-16T14:46:22;28.20;34.10
66140;DHT22;52945;51.908;8.364;2023-07-16T14:49:23;28.30;34.30
66140;DHT22;52945;51.908;8.364;2023-07-16T14:52:24;28.30;33.70
66140;DHT22;52945;51.908;8.364;2023-07-16T14:55:24;28.30;34.00
66140;DHT22;52945;51.908;8.364;2023-07-16T14:58:25;28.30;33.70
66140;DHT22;52945;51.908;8.364;2023-07-16T15:01:26;28.30;33.20
66140;DHT22;52945;51.908;8.364;2023-07-16T15:04:27;28.30;33.90
66140;DHT22;52945;51.908;8.364;2023-07-16T15:07:27;28.30;33.90
66140;DHT22;52945;51.908;8.364;2023-07-16T15:10:28;28.20;33.30
66140;DHT22;52945;51.908;8.364;2023-07-16T15:13:28;28.30;33.60
66140;DHT22;52945;51.908;8.364;2023-07-16T15:16:29;28.50;33.90
66140;DHT22;52945;51.908;8.364;2023-07-16T15:19:30;28.60;33.80
66140;DHT22;52945;51.908;8.364;2023-07-16T15:22:30;28.50;33.10
66140;DHT22;52945;51.908;8.364;2023-07-16T15:25:33;28.50;33.70
66140;DHT22;52945;51.908;8.364;2023-07-16T15:28:34;28.50;33.00
66140;DHT22;52945;51.908;8.364;2023-07-16T15:31:36;28.50;33.80
66140;DHT22;52945;51.908;8.364;2023-07-16T15:34:37;28.30;33.90
66140;DHT22;52945;51.908;8.364;2023-07-16T15:37:38;28.20;33.90
66140;DHT22;52945;51.908;8.364;2023-07-16T15:40:38;28.20;34.10
66140;DHT22;52945;51.908;8.364;2023-07-16T15:43:39;28.10;33.90
66140;DHT22;52945;51.908;8.364;2023-07-16T15:46:39;28.20;34.20
66140;DHT22;52945;51.908;8.364;2023-07-16T15:49:40;28.20;33.60
66140;DHT22;52945;51.908;8.364;2023-07-16T15:52:41;28.20;34.00
66140;DHT22;52945;51.908;8.364;2023-07-16T15:55:42;28.20;34.30
66140;DHT22;52945;51.908;8.364;2023-07-16T15:58:42;28.30;33.90
66140;DHT22;52945;51.908;8.364;2023-07-16T16:01:43;28.40;33.60
66140;DHT22;52945;51.908;8.364;2023-07-16T16:04:43;28.50;33.50
66140;DHT22;52945;51.908;8.364;2023-07-16T16:07:46;28.40;33.30
66140;DHT22;52945;51.908;8.364;2023-07-16T16:10:51;28.30;33.40
66140;DHT22;52945;51.908;8.364;2023-07-16T16:13:51;28.20;33.40
66140;DHT22;52945;51.908;8.364;2023-07-16T16:16:53;28.10;33.70
66140;DHT22;52945;51.908;8.364;2023-07-16T16:19:54;28.10;33.70
66140;DHT22;52945;51.908;8.364;2023-07-16T16:22:55;28.00;34.20
66140;DHT22;52945;51.908;8.364;2023-07-16T16:25:55;28.00;34.30
66140;DHT22;52945;51.908;8.364;2023-07-16T16:28:56;27.90;34.40
66140;DHT22;52945;51.908;8.364;2023-07-16T16:31:57;27.90;34.60
66140;DHT22;52945;51.908;8.364;2023-07-16T16:34:57;27.90;34.90
66140;DHT22;52945;51.908;8.364;2023-07-16T16:37:58;27.90;35.00
66140;DHT22;52945;51.908;8.364;2023-07-16T16:41:02;28.00;35.00
66140;DHT22;52945;51.908;8.364;2023-07-16T16:44:08;28.20;35.10
66140;DHT22;52945;51.908;8.364;2023-07-16T16:47:08;28.20;34.30
66140;DHT22;52945;51.908;8.364;2023-07-16T16:50:09;28.20;34.20
66140;DHT22;52945;51.908;8.364;2023-07-16T16:53:10;28.20;34.00
66140;DHT22;52945;51.908;8.364;2023-07-16T16:56:11;28.10;34.10
66140;DHT22;52945;51.908;8.364;2023-07-16T16:59:11;28.20;33.80
66140;DHT22;52945;51.908;8.364;2023-07-16T17:02:12;28.10;34.10
66140;DHT22;52945;51.908;8.364;2023-07-16T17:05:13;27.90;33.80
66140;DHT22;52945;51.908;8.364;2023-07-16T17:08:13;27.90;33.40
66140;DHT22;52945;51.908;8.364;2023-07-16T17:11:14;27.80;34.00
66140;DHT22;52945;51.908;8.364;2023-07-16T17:14:14;27.80;34.30
66140;DHT22;52945;51.908;8.364;2023-07-16T17:17:15;27.90;34.40
66140;DHT22;52945;51.908;8.364;2023-07-16T17:20:16;27.80;34.20
66140;DHT22;52945;51.908;8.364;2023-07-16T17:23:16;27.80;34.40
66140;DHT22;52945;51.908;8.364;2023-07-16T17:26:17;27.70;34.40
66140;DHT22;52945;51.908;8.364;2023-07-16T17:29:18;27.70;34.70
66140;DHT22;52945;51.908;8.364;2023-07-16T17:32:20;27.70;34.80
66140;DHT22;52945;51.908;8.364;2023-07-16T17:35:20;27.70;34.40
66140;DHT22;52945;51.908;8.364;2023-07-16T17:38:21;27.70;34.70
66140;DHT22;52945;51.908;8.364;2023-07-16T17:41:21;27.70;35.00
66140;DHT22;52945;51.908;8.364;2023-07-16T17:44:22;27.60;34.80
66140;DHT22;52945;51.908;8.364;2023-07-16T17:47:23;27.60;34.80
66140;DHT22;52945;51.908;8.364;2023-07-16T17:50:23;27.50;34.30
66140;DHT22;52945;51.908;8.364;2023-07-16T17:53:24;27.50;34.50
66140;DHT22;52945;51.908;8.364;2023-07-16T17:56:24;27.40;34.70
66140;DHT22;52945;51.908;8.364;2023-07-16T17:59:25;27.40;34.60
66140;DHT22;52945;51.908;8.364;2023-07-16T18:02:25;27.30;34.80
66140;DHT22;52945;51.908;8.364;2023-07-16T18:05:26;27.20;35.10
66140;DHT22;52945;51.908;8.364;2023-07-16T18:08:27;27.20;35.20
66140;DHT22;52945;51.908;8.364;2023-07-16T18:11:27;27.10;35.40
66140;DHT22;52945;51.908;8.364;2023-07-16T18:14:28;27.00;35.50
66140;DHT22;52945;51.908;8.364;2023-07-16T18:17:30;27.00;35.80
66140;DHT22;52945;51.908;8.364;2023-07-16T18:20:31;26.80;36.00
66140;DHT22;52945;51.908;8.364;2023-07-16T18:23:31;26.80;36.20
66140;DHT22;52945;51.908;8.364;2023-07-16T18:26:35;26.80;36.40
66140;DHT22;52945;51.908;8.364;2023-07-16T18:29:35;26.80;37.00
66140;DHT22;52945;51.908;8.364;2023-07-16T18:32:36;26.70;38.70
66140;DHT22;52945;51.908;8.364;2023-07-16T18:35:36;26.70;38.60
66140;DHT22;52945;51.908;8.364;2023-07-16T18:38:37;26.60;39.10
66140;DHT22;52945;51.908;8.364;2023-07-16T18:41:37;26.60;39.20
66140;DHT22;52945;51.908;8.364;2023-07-16T18:44:39;26.50;39.60
66140;DHT22;52945;51.908;8.364;2023-07-16T18:47:39;26.40;39.10
66140;DHT22;52945;51.908;8.364;2023-07-16T18:50:40;26.40;38.50
66140;DHT22;52945;51.908;8.364;2023-07-16T18:53:41;26.30;39.00
66140;DHT22;52945;51.908;8.364;2023-07-16T18:56:41;26.30;38.70
66140;DHT22;52945;51.908;8.364;2023-07-16T18:59:42;26.20;38.90
66140;DHT22;52945;51.908;8.364;2023-07-16T19:02:43;26.20;39.20
66140;DHT22;52945;51.908;8.364;2023-07-16T19:05:43;26.10;39.90
66140;DHT22;52945;51.908;8.364;2023-07-16T19:08:44;26.10;40.40
66140;DHT22;52945;51.908;8.364;2023-07-16T19:11:44;26.10;39.50
66140;DHT22;52945;51.908;8.364;2023-07-16T19:14:45;26.00;39.60